createdAt,value
2023-04-20T00:02:31.599Z,91.40
2023-04-20T00:06:34.088Z,91.60
2023-04-20T00:10:35.822Z,91.20
2023-04-20T00:14:37.597Z,90.40
2023-04-20T00:18:40.206Z,91.20
2023-04-20T00:22:41.854Z,90.50
2023-04-20T00:26:43.460Z,90.50
2023-04-20T00:30:45.147Z,91.60
2023-04-20T00:34:46.915Z,91.30
2023-04-20T00:38:48.602Z,91.80
2023-04-20T00:42:50.276Z,93.90
2023-04-20T00:46:54.652Z,94.10
2023-04-20T00:50:56.855Z,94.50
2023-04-20T00:54:58.649Z,94.50
2023-04-20T00:59:01.546Z,95.60
2023-04-20T01:03:03.852Z,95.80
2023-04-20T01:07:05.658Z,95.80
2023-04-20T01:11:07.579Z,97.00
2023-04-20T01:15:09.970Z,96.90
2023-04-20T01:19:11.858Z,96.40
2023-04-20T01:23:13.518Z,99.90
2023-04-20T01:27:16.914Z,98.60
2023-04-20T01:31:18.632Z,99.40
2023-04-20T01:35:20.415Z,99.40
2023-04-20T01:39:22.300Z,99.90
2023-04-20T01:43:24.564Z,99.90
2023-04-20T01:47:26.279Z,99.90
2023-04-20T01:51:27.963Z,99.90
2023-04-20T01:55:29.618Z,99.90
2023-04-20T01:59:31.269Z,99.90
2023-04-20T02:03:33.073Z,99.90
2023-04-20T02:07:34.926Z,99.90
2023-04-20T02:11:36.637Z,99.90
2023-04-20T02:15:38.316Z,99.90
2023-04-20T02:19:40.289Z,99.90
2023-04-20T02:23:41.957Z,99.90
2023-04-20T02:27:49.908Z,99.90
2023-04-20T02:31:51.575Z,99.90
2023-04-20T02:35:53.319Z,99.90
2023-04-20T02:39:55.021Z,99.90
2023-04-20T02:43:56.717Z,99.90
2023-04-20T02:47:58.403Z,99.90
2023-04-20T02:52:00.092Z,99.90
2023-04-20T02:56:01.754Z,99.90
2023-04-20T03:00:03.662Z,99.90
2023-04-20T03:04:05.466Z,99.90
2023-04-20T03:08:07.371Z,99.90
2023-04-20T03:12:08.990Z,99.90
2023-04-20T03:16:10.822Z,99.90
2023-04-20T03:20:13.274Z,99.90
2023-04-20T03:24:16.894Z,99.90
2023-04-20T03:28:18.624Z,99.90
2023-04-20T03:32:20.321Z,99.90
2023-04-20T03:36:22.535Z,99.90
2023-04-20T03:40:24.438Z,99.90
2023-04-20T03:44:26.160Z,99.90
2023-04-20T03:48:28.158Z,99.90
2023-04-20T03:52:29.877Z,99.90
2023-04-20T03:56:31.489Z,99.90
2023-04-20T04:00:33.274Z,99.90
2023-04-20T04:04:35.196Z,99.90
2023-04-20T04:08:36.999Z,99.90
2023-04-20T04:12:38.620Z,99.90
2023-04-20T04:16:40.413Z,99.90
2023-04-20T04:20:42.150Z,99.90
2023-04-20T04:24:43.909Z,99.90
2023-04-20T04:28:45.829Z,99.90
2023-04-20T04:32:49.064Z,99.90
2023-04-20T04:36:50.868Z,99.90
2023-04-20T04:40:53.838Z,99.90
2023-04-20T04:44:56.090Z,99.90
2023-04-20T04:49:01.158Z,99.90
2023-04-20T04:53:02.947Z,99.90
2023-04-20T04:57:04.881Z,99.90
2023-04-20T05:01:06.527Z,99.90
2023-04-20T05:05:09.934Z,99.90
2023-04-20T05:09:11.827Z,99.90
2023-04-20T05:13:13.452Z,99.90
2023-04-20T05:17:15.144Z,99.90
2023-04-20T05:21:16.797Z,99.90
2023-04-20T05:25:18.765Z,99.90
2023-04-20T05:29:21.092Z,99.90
2023-04-20T05:33:22.891Z,99.90
2023-04-20T05:37:24.549Z,99.90
2023-04-20T05:41:29.006Z,99.90
2023-04-20T05:45:30.762Z,99.90
2023-04-20T05:49:33.328Z,99.90
2023-04-20T05:53:35.101Z,99.90
2023-04-20T05:57:42.474Z,99.90
2023-04-20T06:01:44.110Z,99.90
2023-04-20T06:05:45.951Z,99.90
2023-04-20T06:09:47.578Z,99.90
2023-04-20T06:13:49.269Z,99.90
2023-04-20T06:17:50.970Z,99.90
2023-04-20T06:21:52.765Z,99.90
2023-04-20T06:25:54.821Z,99.90
2023-04-20T06:29:56.461Z,99.90
2023-04-20T06:33:58.546Z,99.90
2023-04-20T06:38:02.439Z,99.90
2023-04-20T06:42:04.248Z,99.90
2023-04-20T06:46:06.042Z,99.90
2023-04-20T06:50:09.362Z,99.90
2023-04-20T06:54:11.437Z,99.90
2023-04-20T06:58:13.082Z,99.90
2023-04-20T07:02:14.947Z,99.90
2023-04-20T07:06:17.225Z,99.90
2023-04-20T07:10:18.926Z,99.90
2023-04-20T07:14:20.724Z,99.90
2023-04-20T07:18:22.373Z,99.90
2023-04-20T07:22:24.629Z,99.90
2023-04-20T07:26:26.358Z,99.90
2023-04-20T07:30:28.077Z,99.90
2023-04-20T07:34:29.759Z,99.90
2023-04-20T07:38:31.760Z,99.90
2023-04-20T07:42:34.881Z,99.90
2023-04-20T07:46:36.597Z,99.90
2023-04-20T07:50:38.896Z,99.90
2023-04-20T07:54:40.701Z,99.90
2023-04-20T07:58:42.350Z,99.90
2023-04-20T08:02:44.634Z,99.90
2023-04-20T08:06:46.378Z,99.90
2023-04-20T08:10:48.013Z,99.90
2023-04-20T08:14:49.695Z,99.90
2023-04-20T08:18:51.394Z,99.90
2023-04-20T08:22:53.223Z,99.90
2023-04-20T08:26:54.874Z,99.90
2023-04-20T08:30:56.622Z,99.90
2023-04-20T08:34:58.311Z,99.90
2023-04-20T08:39:12.051Z,99.90
2023-04-20T08:43:13.719Z,99.90
2023-04-20T08:47:15.441Z,99.90
2023-04-20T08:51:18.022Z,99.90
2023-04-20T08:55:19.987Z,99.90
2023-04-20T08:59:21.623Z,99.90
2023-04-20T09:03:37.709Z,99.90
2023-04-20T09:07:39.479Z,99.90
2023-04-20T09:11:41.632Z,99.90
2023-04-20T09:15:43.470Z,99.90
2023-04-20T09:19:52.086Z,99.90
2023-04-20T09:24:07.893Z,99.90
2023-04-20T09:28:10.184Z,99.90
2023-04-20T09:32:24.921Z,99.90
2023-04-20T09:36:50.554Z,99.90
2023-04-20T09:40:52.324Z,99.90
2023-04-20T09:44:54.495Z,99.90
2023-04-20T09:48:56.328Z,99.90
2023-04-20T09:52:58.238Z,99.90
2023-04-20T09:57:03.315Z,99.90
2023-04-20T10:01:08.681Z,99.90
2023-04-20T10:05:10.394Z,99.90
2023-04-20T10:09:25.852Z,99.90
2023-04-20T10:13:33.922Z,99.90
2023-04-20T10:17:36.006Z,99.90
2023-04-20T10:21:48.914Z,99.90
2023-04-20T10:25:58.689Z,99.90
2023-04-20T10:30:13.046Z,99.90
2023-04-20T10:34:14.794Z,99.90
2023-04-20T10:38:31.592Z,99.90
2023-04-20T10:42:42.927Z,99.90
2023-04-20T10:46:49.694Z,99.90
2023-04-20T10:50:51.468Z,99.90
2023-04-20T10:54:53.112Z,99.90
2023-04-20T10:58:55.173Z,99.90
2023-04-20T11:02:57.427Z,99.90
2023-04-20T11:07:07.212Z,99.90
2023-04-20T11:11:24.886Z,99.90
2023-04-20T11:15:33.485Z,99.90
2023-04-20T11:19:36.860Z,99.90
2023-04-20T11:23:38.581Z,99.90
2023-04-20T11:27:42.224Z,99.90
2023-04-20T11:31:51.235Z,99.90
2023-04-20T11:35:53.168Z,99.90
2023-04-20T11:40:02.252Z,99.90
2023-04-20T11:44:06.626Z,99.90
2023-04-20T11:48:08.320Z,99.90
2023-04-20T11:52:10.286Z,99.90
2023-04-20T11:56:11.887Z,99.90
2023-04-20T12:00:14.574Z,99.90
2023-04-20T12:04:16.879Z,99.90
2023-04-20T12:08:18.857Z,99.90
2023-04-20T12:12:20.707Z,99.90
2023-04-20T12:16:22.498Z,99.90
2023-04-20T12:20:24.276Z,99.90
2023-04-20T12:24:26.150Z,99.90
2023-04-20T12:28:27.780Z,99.90
2023-04-20T12:32:29.493Z,99.90
2023-04-20T12:36:32.328Z,99.90
2023-04-20T12:40:35.037Z,99.90
2023-04-20T12:44:36.627Z,99.90
2023-04-20T12:48:38.322Z,99.90
2023-04-20T12:52:40.028Z,99.90
2023-04-20T12:56:41.655Z,99.90
2023-04-20T13:00:43.422Z,99.90
2023-04-20T13:04:50.070Z,99.90
2023-04-20T13:08:51.720Z,99.90
2023-04-20T13:12:53.387Z,99.90
2023-04-20T13:16:55.654Z,99.90
2023-04-20T13:20:57.540Z,99.90
2023-04-20T13:24:59.227Z,99.90
2023-04-20T13:29:00.995Z,99.90
2023-04-20T13:33:02.729Z,99.90
2023-04-20T13:37:04.592Z,99.90
2023-04-20T13:41:06.325Z,99.90
2023-04-20T13:45:08.934Z,99.90
2023-04-20T13:49:13.270Z,99.90
2023-04-20T13:53:15.384Z,99.90
2023-04-20T13:57:17.041Z,99.90
2023-04-20T14:01:18.814Z,99.90
2023-04-20T14:05:20.602Z,98.80
2023-04-20T14:09:22.483Z,97.60
2023-04-20T14:13:24.300Z,99.80
2023-04-20T14:17:26.748Z,98.90
2023-04-20T14:21:28.732Z,93.70
2023-04-20T14:25:30.393Z,93.00
2023-04-20T14:29:32.080Z,94.80
2023-04-20T14:33:33.753Z,93.70
2023-04-20T14:37:35.363Z,92.40
2023-04-20T14:41:37.005Z,93.60
2023-04-20T14:45:41.367Z,93.10
2023-04-20T14:49:44.504Z,95.60
2023-04-20T14:53:46.273Z,94.10
2023-04-20T14:57:47.936Z,92.70
2023-04-20T15:02:01.839Z,95.10
2023-04-20T15:06:05.129Z,94.70
2023-04-20T15:10:07.517Z,96.00
2023-04-20T15:14:09.199Z,97.30
2023-04-20T15:18:10.929Z,98.80
2023-04-20T15:22:13.505Z,99.00
2023-04-20T15:26:15.245Z,99.10
2023-04-20T15:30:16.935Z,99.20
2023-04-20T15:34:18.955Z,99.90
2023-04-20T15:38:20.712Z,99.90
2023-04-20T15:42:22.572Z,99.60
2023-04-20T15:46:26.405Z,99.90
2023-04-20T15:50:28.281Z,99.90
2023-04-20T15:54:30.118Z,99.90
2023-04-20T15:58:31.748Z,99.40
2023-04-20T16:02:33.659Z,99.40
2023-04-20T16:06:36.981Z,97.70
2023-04-20T16:10:38.790Z,97.60
2023-04-20T16:14:40.483Z,97.50
2023-04-20T16:18:42.170Z,96.90
2023-04-20T16:22:43.837Z,97.70
2023-04-20T16:26:46.358Z,97.00
2023-04-20T16:30:48.178Z,97.40
2023-04-20T16:34:50.439Z,97.50
2023-04-20T16:38:52.120Z,98.80
2023-04-20T16:42:53.858Z,99.20
2023-04-20T16:46:55.881Z,97.60
2023-04-20T16:50:57.994Z,97.30
2023-04-20T16:54:59.733Z,96.90
2023-04-20T16:59:01.533Z,98.70
2023-04-20T17:03:10.314Z,97.80
2023-04-20T17:07:13.306Z,98.40
2023-04-20T17:11:15.977Z,99.10
2023-04-20T17:15:17.972Z,99.20
2023-04-20T17:19:20.630Z,99.10
2023-04-20T17:23:22.381Z,99.70
2023-04-20T17:27:24.062Z,99.90
2023-04-20T17:31:26.084Z,99.90
2023-04-20T17:35:27.891Z,99.90
2023-04-20T17:39:29.531Z,99.90
2023-04-20T17:43:31.179Z,99.90
2023-04-20T17:47:32.982Z,99.90
2023-04-20T17:51:34.732Z,99.90
2023-04-20T17:55:36.560Z,99.90
2023-04-20T17:59:38.181Z,99.90
2023-04-20T18:03:40.526Z,99.90
2023-04-20T18:07:42.369Z,99.90
2023-04-20T18:11:44.060Z,99.90
2023-04-20T18:15:45.769Z,99.90
2023-04-20T18:19:47.426Z,99.90
2023-04-20T18:23:49.462Z,99.90
2023-04-20T18:27:51.125Z,99.90
2023-04-20T18:31:54.825Z,99.90
2023-04-20T18:35:56.591Z,99.90
2023-04-20T18:39:58.566Z,99.90
2023-04-20T18:44:01.206Z,99.90
2023-04-20T18:48:03.057Z,99.90
2023-04-20T18:52:04.819Z,99.90
2023-04-20T18:56:07.558Z,99.90
2023-04-20T19:00:10.502Z,99.90
2023-04-20T19:04:12.293Z,99.90
2023-04-20T19:08:14.131Z,99.90
2023-04-20T19:12:15.829Z,99.90
2023-04-20T19:16:17.560Z,99.90
2023-04-20T19:20:19.351Z,99.90
2023-04-20T19:24:21.240Z,99.90
2023-04-20T19:28:24.154Z,99.90
2023-04-20T19:32:26.187Z,99.90
2023-04-20T19:36:27.894Z,99.90
2023-04-20T19:40:29.613Z,99.90
2023-04-20T19:44:37.755Z,99.90
2023-04-20T19:48:39.427Z,99.90
2023-04-20T19:52:41.146Z,99.90
2023-04-20T19:56:43.079Z,99.90
2023-04-20T20:00:44.785Z,99.90
2023-04-20T20:04:46.719Z,99.90
2023-04-20T20:08:48.543Z,99.90
2023-04-20T20:12:50.319Z,99.90
2023-04-20T20:16:52.016Z,99.90
2023-04-20T20:20:53.698Z,99.90
2023-04-20T20:24:55.409Z,99.90
2023-04-20T20:28:57.065Z,99.90
2023-04-20T20:32:59.341Z,99.90
2023-04-20T20:37:04.148Z,99.90
2023-04-20T20:41:06.562Z,99.90
2023-04-20T20:45:12.665Z,99.90
2023-04-20T20:49:14.485Z,99.90
2023-04-20T20:53:17.487Z,99.90
2023-04-20T20:57:20.418Z,99.90
2023-04-20T21:01:22.289Z,99.90
2023-04-20T21:05:24.181Z,99.90
2023-04-20T21:09:25.862Z,99.90
2023-04-20T21:13:27.517Z,99.90
2023-04-20T21:17:29.214Z,99.90
2023-04-20T21:21:32.675Z,99.90
2023-04-20T21:25:34.295Z,99.90
2023-04-20T21:29:36.058Z,99.90
2023-04-20T21:33:37.902Z,99.90
2023-04-20T21:37:39.673Z,99.90
2023-04-20T21:41:41.390Z,99.90
2023-04-20T21:45:43.214Z,99.90
2023-04-20T21:49:44.958Z,99.90
2023-04-20T21:53:46.696Z,99.90
2023-04-20T21:57:48.404Z,99.90
2023-04-20T22:01:50.116Z,99.90
2023-04-20T22:05:51.811Z,99.90
2023-04-20T22:09:53.474Z,99.90
2023-04-20T22:13:57.124Z,99.90
2023-04-20T22:18:03.958Z,99.90
2023-04-20T22:22:05.797Z,99.90
2023-04-20T22:26:07.592Z,99.90
2023-04-20T22:30:09.849Z,99.90
2023-04-20T22:34:11.589Z,99.90
2023-04-20T22:38:13.310Z,99.90
2023-04-20T22:42:15.097Z,99.90
2023-04-20T22:46:16.847Z,99.90
2023-04-20T22:50:18.653Z,99.90
2023-04-20T22:54:20.281Z,99.90
2023-04-20T22:58:22.003Z,99.90
2023-04-20T23:02:23.800Z,99.90
2023-04-20T23:06:25.584Z,99.90
2023-04-20T23:10:28.644Z,99.90
2023-04-20T23:14:30.508Z,99.90
2023-04-20T23:18:32.368Z,99.90
2023-04-20T23:22:33.994Z,99.90
2023-04-20T23:26:35.829Z,99.90
2023-04-20T23:30:37.507Z,99.90
2023-04-20T23:34:39.209Z,99.90
2023-04-20T23:38:41.160Z,99.90
2023-04-20T23:42:42.804Z,99.90
2023-04-20T23:46:44.528Z,99.90
2023-04-20T23:50:48.733Z,99.90
2023-04-20T23:54:50.444Z,99.90
2023-04-20T23:58:52.112Z,99.90
